createdAt,value
2022-12-08T00:00:08.901Z,35.88
2022-12-08T00:03:17.675Z,37.40
2022-12-08T00:06:43.971Z,36.57
2022-12-08T00:09:50.802Z,39.15
2022-12-08T00:12:53.427Z,39.17
2022-12-08T00:16:00.734Z,37.80
2022-12-08T00:19:03.543Z,40.17
2022-12-08T00:22:06.801Z,39.60
2022-12-08T00:25:10.909Z,39.03
2022-12-08T00:28:13.520Z,39.78
2022-12-08T00:31:16.263Z,41.10
2022-12-08T00:34:19.393Z,37.95
2022-12-08T00:37:22.091Z,39.23
2022-12-08T00:40:26.287Z,42.70
2022-12-08T00:43:28.820Z,42.35
2022-12-08T00:46:31.476Z,42.03
2022-12-08T00:49:34.172Z,40.05
2022-12-08T00:52:37.168Z,40.43
2022-12-08T00:55:41.128Z,40.85
2022-12-08T00:58:43.723Z,41.85
2022-12-08T01:01:47.969Z,40.55
2022-12-08T01:04:51.022Z,39.65
2022-12-08T01:07:53.662Z,41.57
2022-12-08T01:11:03.711Z,38.70
2022-12-08T01:14:06.370Z,38.95
2022-12-08T01:17:09.133Z,49.95
2022-12-08T01:20:12.268Z,42.30
2022-12-08T01:23:14.941Z,38.87
2022-12-08T01:26:19.704Z,38.10
2022-12-08T01:29:22.667Z,39.47
2022-12-08T01:32:25.326Z,39.88
2022-12-08T01:35:28.013Z,38.83
2022-12-08T01:38:31.029Z,38.27
2022-12-08T01:41:37.719Z,39.20
2022-12-08T01:45:02.555Z,36.92
2022-12-08T01:48:11.098Z,34.95
2022-12-08T01:51:14.367Z,37.45
2022-12-08T01:54:17.490Z,34.77
2022-12-08T01:57:27.296Z,36.92
2022-12-08T02:00:30.193Z,37.05
2022-12-08T02:03:38.313Z,35.13
2022-12-08T02:06:43.193Z,32.97
2022-12-08T02:09:46.579Z,31.03
2022-12-08T02:12:56.465Z,34.42
2022-12-08T02:16:08.251Z,34.67
2022-12-08T02:19:35.739Z,33.00
2022-12-08T02:22:46.093Z,32.13
2022-12-08T02:26:28.621Z,31.80
2022-12-08T02:30:09.480Z,33.72
2022-12-08T02:33:55.718Z,33.33
2022-12-08T02:37:08.319Z,31.95
2022-12-08T02:40:18.552Z,31.00
2022-12-08T02:43:27.970Z,32.07
2022-12-08T02:46:36.377Z,31.55
2022-12-08T02:49:40.645Z,30.33
2022-12-08T02:52:45.260Z,30.50
2022-12-08T02:56:00.672Z,30.23
2022-12-08T02:59:25.881Z,29.87
2022-12-08T03:02:53.125Z,30.50
2022-12-08T03:06:06.909Z,30.83
2022-12-08T03:09:18.076Z,32.58
2022-12-08T03:12:30.089Z,32.70
2022-12-08T03:15:35.241Z,35.70
2022-12-08T03:18:44.217Z,39.67
2022-12-08T03:21:51.380Z,41.63
2022-12-08T03:24:55.367Z,40.00
2022-12-08T03:27:59.591Z,38.78
2022-12-08T03:31:07.048Z,38.17
2022-12-08T03:34:12.639Z,36.85
2022-12-08T03:37:17.026Z,37.17
2022-12-08T03:40:20.876Z,32.65
2022-12-08T03:43:23.548Z,29.02
2022-12-08T03:49:35.108Z,29.92
2022-12-08T03:52:39.137Z,28.02
2022-12-08T03:56:00.273Z,29.13
2022-12-08T03:59:03.964Z,31.00
2022-12-08T04:02:06.665Z,26.87
2022-12-08T04:05:09.947Z,25.25
2022-12-08T04:08:14.039Z,22.50
2022-12-08T04:11:17.167Z,20.20
2022-12-08T04:14:19.894Z,19.58
2022-12-08T04:17:22.468Z,19.47
2022-12-08T04:20:25.026Z,21.10
2022-12-08T04:23:28.990Z,21.60
2022-12-08T04:26:31.613Z,19.92
2022-12-08T04:29:34.228Z,20.50
2022-12-08T04:32:36.978Z,22.57
2022-12-08T04:35:39.680Z,21.00
2022-12-08T04:38:43.928Z,20.67
2022-12-08T04:41:46.545Z,20.38
2022-12-08T04:44:49.236Z,21.48
2022-12-08T04:47:51.842Z,22.43
2022-12-08T04:50:54.495Z,21.50
2022-12-08T04:53:58.688Z,20.98
2022-12-08T04:57:01.418Z,20.50
2022-12-08T05:00:05.247Z,22.60
2022-12-08T05:03:08.300Z,20.70
2022-12-08T05:06:13.207Z,20.88
2022-12-08T05:09:17.489Z,18.98
2022-12-08T05:12:20.132Z,17.63
2022-12-08T05:15:22.795Z,17.60
2022-12-08T05:18:25.357Z,19.13
2022-12-08T05:21:28.016Z,19.20
2022-12-08T05:24:32.720Z,17.98
2022-12-08T05:27:35.722Z,17.85
2022-12-08T05:30:38.417Z,19.85
2022-12-08T05:33:41.445Z,21.50
2022-12-08T05:36:44.236Z,21.77
2022-12-08T05:39:48.331Z,19.45
2022-12-08T05:42:51.773Z,19.13
2022-12-08T05:45:54.433Z,17.08
2022-12-08T05:48:59.518Z,17.53
2022-12-08T05:52:02.363Z,18.05
2022-12-08T05:55:08.077Z,16.80
2022-12-08T05:58:13.502Z,18.45
2022-12-08T06:01:24.065Z,16.75
2022-12-08T06:04:26.833Z,17.40
2022-12-08T06:07:29.414Z,18.30
2022-12-08T06:10:33.657Z,19.38
2022-12-08T06:13:36.340Z,18.05
2022-12-08T06:16:39.219Z,19.45
2022-12-08T06:19:42.222Z,19.10
2022-12-08T06:22:44.857Z,19.13
2022-12-08T06:25:48.911Z,19.65
2022-12-08T06:29:10.155Z,17.90
2022-12-08T06:32:12.913Z,17.75
2022-12-08T06:35:15.830Z,17.67
2022-12-08T06:38:18.664Z,17.67
2022-12-08T06:41:23.405Z,18.02
2022-12-08T06:44:26.115Z,16.67
2022-12-08T06:47:28.806Z,16.88
2022-12-08T06:50:32.682Z,15.93
2022-12-08T06:53:35.477Z,15.82
2022-12-08T06:56:39.576Z,16.30
2022-12-08T06:59:42.319Z,17.15
2022-12-08T07:02:47.327Z,18.30
2022-12-08T07:05:50.123Z,19.57
2022-12-08T07:08:52.948Z,17.85
2022-12-08T07:11:58.555Z,16.90
2022-12-08T07:15:04.506Z,16.50
2022-12-08T07:18:07.202Z,16.58
2022-12-08T07:21:12.366Z,18.57
2022-12-08T07:24:15.309Z,20.40
2022-12-08T07:27:19.707Z,19.50
2022-12-08T07:30:22.967Z,19.00
2022-12-08T07:33:26.036Z,19.10
2022-12-08T07:36:29.308Z,16.73
2022-12-08T07:39:32.002Z,17.33
2022-12-08T07:42:36.835Z,15.95
2022-12-08T07:45:40.569Z,19.73
2022-12-08T07:48:43.851Z,20.50
2022-12-08T07:51:46.933Z,17.70
2022-12-08T07:54:50.160Z,18.60
2022-12-08T07:57:54.391Z,16.65
2022-12-08T08:00:57.313Z,16.33
2022-12-08T08:04:04.408Z,16.45
2022-12-08T08:07:08.355Z,16.97
2022-12-08T08:10:15.068Z,17.42
2022-12-08T08:13:18.989Z,17.75
2022-12-08T08:16:21.740Z,17.60
2022-12-08T08:19:24.606Z,16.88
2022-12-08T08:22:28.312Z,17.30
2022-12-08T08:25:31.083Z,19.40
2022-12-08T08:28:35.420Z,17.45
2022-12-08T08:31:56.786Z,18.55
2022-12-08T08:35:00.565Z,17.33
2022-12-08T08:38:03.604Z,16.93
2022-12-08T08:41:10.427Z,16.55
2022-12-08T08:44:15.073Z,17.42
2022-12-08T08:47:17.667Z,15.48
2022-12-08T08:50:20.277Z,15.50
2022-12-08T08:53:23.997Z,14.07
2022-12-08T08:56:26.790Z,14.07
2022-12-08T08:59:31.318Z,15.85
2022-12-08T09:02:36.853Z,14.52
2022-12-08T09:05:41.340Z,13.30
2022-12-08T09:08:45.937Z,13.67
2022-12-08T09:11:48.667Z,11.40
2022-12-08T09:14:52.655Z,11.70
2022-12-08T09:17:55.330Z,10.68
2022-12-08T09:21:04.920Z,11.35
2022-12-08T09:24:15.448Z,11.40
2022-12-08T09:27:19.788Z,11.38
2022-12-08T09:30:23.984Z,11.05
2022-12-08T09:33:28.798Z,11.27
2022-12-08T09:36:31.740Z,11.13
2022-12-08T09:39:37.655Z,10.77
2022-12-08T09:42:47.918Z,10.93
2022-12-08T09:45:53.211Z,10.13
2022-12-08T09:48:59.090Z,10.68
2022-12-08T09:52:03.027Z,10.98
2022-12-08T09:55:16.479Z,9.47
2022-12-08T09:58:25.620Z,9.20
2022-12-08T10:01:32.074Z,8.88
2022-12-08T10:04:37.730Z,9.32
2022-12-08T10:07:46.017Z,9.75
2022-12-08T10:10:58.634Z,10.50
2022-12-08T10:14:18.063Z,8.70
2022-12-08T10:17:47.459Z,8.68
2022-12-08T10:20:58.376Z,8.63
2022-12-08T10:24:05.931Z,8.23
2022-12-08T10:27:12.194Z,7.40
2022-12-08T10:30:18.235Z,7.70
2022-12-08T10:33:23.725Z,7.78
2022-12-08T10:36:47.151Z,9.20
2022-12-08T10:40:01.408Z,7.60
2022-12-08T10:43:05.992Z,7.73
2022-12-08T10:46:11.599Z,7.72
2022-12-08T10:49:27.238Z,8.27
2022-12-08T10:52:29.927Z,8.55
2022-12-08T10:55:41.382Z,7.47
2022-12-08T10:58:45.354Z,7.13
2022-12-08T11:01:50.031Z,8.68
2022-12-08T11:05:00.164Z,7.10
2022-12-08T11:08:05.889Z,6.85
2022-12-08T11:11:09.018Z,6.05
2022-12-08T11:14:18.712Z,6.07
2022-12-08T11:17:26.323Z,6.55
2022-12-08T11:20:38.771Z,6.90
2022-12-08T11:23:44.431Z,6.30
2022-12-08T11:26:51.765Z,6.43
2022-12-08T11:29:54.655Z,6.50
2022-12-08T11:33:02.618Z,6.25
2022-12-08T11:36:12.000Z,6.97
2022-12-08T11:39:15.118Z,6.82
2022-12-08T11:42:23.195Z,6.50
2022-12-08T11:45:30.699Z,6.60
2022-12-08T11:48:37.250Z,7.13
2022-12-08T11:51:48.695Z,7.35
2022-12-08T11:54:58.614Z,8.35
2022-12-08T11:58:11.338Z,6.93
2022-12-08T12:01:19.208Z,7.43
2022-12-08T12:04:29.864Z,6.03
2022-12-08T12:08:05.812Z,6.90
2022-12-08T12:11:36.733Z,8.15
2022-12-08T12:14:59.687Z,7.45
2022-12-08T12:18:08.854Z,8.37
2022-12-08T12:21:19.893Z,13.43
2022-12-08T12:24:35.560Z,12.60
2022-12-08T12:27:41.440Z,9.25
2022-12-08T12:30:56.830Z,8.60
2022-12-08T12:34:07.528Z,8.57
2022-12-08T12:37:13.432Z,8.68
2022-12-08T12:40:20.916Z,8.85
2022-12-08T12:43:30.490Z,12.05
2022-12-08T12:46:42.602Z,10.85
2022-12-08T12:50:36.869Z,11.97
2022-12-08T12:53:50.788Z,8.88
2022-12-08T12:56:56.556Z,9.70
2022-12-08T13:00:09.508Z,12.82
2022-12-08T13:03:14.898Z,17.27
2022-12-08T13:06:25.361Z,32.03
2022-12-08T13:09:33.747Z,14.38
2022-12-08T13:12:37.913Z,11.77
2022-12-08T13:15:47.374Z,13.98
2022-12-08T13:18:52.968Z,15.02
2022-12-08T13:21:55.902Z,16.77
2022-12-08T13:25:49.112Z,16.10
2022-12-08T13:29:23.573Z,12.50
2022-12-08T13:33:17.103Z,11.73
2022-12-08T13:36:29.932Z,14.35
2022-12-08T13:39:42.202Z,11.90
2022-12-08T13:42:53.497Z,11.32
2022-12-08T13:46:57.522Z,10.07
2022-12-08T13:59:45.765Z,17.08
2022-12-08T14:02:51.056Z,34.35
2022-12-08T14:09:21.362Z,39.30
2022-12-08T14:12:29.223Z,14.70
2022-12-08T14:15:38.311Z,31.05
2022-12-08T14:18:41.586Z,28.10
2022-12-08T14:21:53.528Z,29.67
2022-12-08T14:25:07.440Z,27.95
2022-12-08T14:28:11.500Z,12.27
2022-12-08T14:31:17.182Z,15.27
2022-12-08T14:34:20.338Z,22.75
2022-12-08T14:37:26.397Z,12.68
2022-12-08T14:40:33.897Z,14.55
2022-12-08T14:43:36.628Z,11.67
2022-12-08T14:47:05.817Z,10.57
2022-12-08T14:50:40.713Z,10.45
2022-12-08T14:53:47.869Z,13.82
2022-12-08T14:56:53.035Z,13.10
2022-12-08T14:59:55.890Z,12.67
2022-12-08T15:03:07.578Z,10.23
2022-12-08T15:06:10.996Z,9.15
2022-12-08T15:09:28.772Z,14.00
2022-12-08T15:12:33.352Z,14.57
2022-12-08T15:15:48.569Z,10.73
2022-12-08T15:19:03.178Z,11.77
2022-12-08T15:22:20.321Z,13.20
2022-12-08T15:25:24.415Z,14.20
2022-12-08T15:28:30.244Z,14.32
2022-12-08T15:31:33.252Z,21.43
2022-12-08T15:34:37.552Z,20.50
2022-12-08T15:37:41.509Z,27.95
2022-12-08T15:40:44.207Z,28.50
2022-12-08T15:44:05.478Z,13.68
2022-12-08T15:47:15.762Z,15.73
2022-12-08T15:50:21.505Z,18.52
2022-12-08T15:53:24.145Z,13.48
2022-12-08T15:56:28.513Z,13.10
2022-12-08T15:59:31.903Z,13.32
2022-12-08T16:03:05.046Z,13.10
2022-12-08T16:06:50.796Z,12.35
2022-12-08T16:09:28.557Z,12.40
2022-12-08T16:13:55.019Z,13.95
2022-12-08T16:16:19.670Z,12.68
2022-12-08T16:19:22.694Z,13.73
2022-12-08T16:26:20.272Z,12.88
2022-12-08T16:29:19.499Z,12.15
2022-12-08T16:32:23.270Z,10.60
2022-12-08T16:35:25.967Z,11.47
2022-12-08T16:38:29.943Z,18.20
2022-12-08T16:41:51.617Z,27.65
2022-12-08T16:44:54.287Z,22.20
2022-12-08T16:47:58.805Z,21.17
2022-12-08T16:51:04.505Z,15.80
2022-12-08T16:54:08.645Z,13.32
2022-12-08T16:57:12.350Z,13.60
2022-12-08T17:00:18.265Z,15.02
2022-12-08T17:03:20.995Z,16.50
2022-12-08T17:06:24.710Z,14.47
2022-12-08T17:09:31.315Z,17.10
2022-12-08T17:12:35.816Z,16.75
2022-12-08T17:15:40.059Z,18.33
2022-12-08T17:18:42.759Z,18.92
2022-12-08T17:21:45.475Z,14.93
2022-12-08T17:24:49.629Z,15.57
2022-12-08T17:27:52.376Z,15.15
2022-12-08T17:30:55.391Z,16.35
2022-12-08T17:33:58.543Z,16.55
2022-12-08T17:37:01.114Z,14.40
2022-12-08T17:40:08.243Z,14.77
2022-12-08T17:43:12.823Z,14.07
2022-12-08T17:46:17.680Z,14.35
2022-12-08T17:49:22.290Z,14.98
2022-12-08T17:52:25.020Z,17.70
2022-12-08T17:55:29.279Z,16.17
2022-12-08T17:58:32.227Z,14.57
2022-12-08T18:01:36.143Z,15.07
2022-12-08T18:04:39.280Z,17.17
2022-12-08T18:07:42.084Z,16.40
2022-12-08T18:10:46.902Z,18.83
2022-12-08T18:14:11.139Z,16.05
2022-12-08T18:17:13.996Z,17.15
2022-12-08T18:20:17.800Z,17.48
2022-12-08T18:23:20.571Z,14.40
2022-12-08T18:26:24.759Z,14.27
2022-12-08T18:29:27.514Z,14.40
2022-12-08T18:32:30.297Z,14.95
2022-12-08T18:35:34.139Z,15.52
2022-12-08T18:38:37.679Z,16.13
2022-12-08T18:41:41.708Z,17.33
2022-12-08T18:44:44.283Z,18.13
2022-12-08T18:47:46.859Z,22.40
2022-12-08T18:50:49.737Z,22.42
2022-12-08T18:53:53.332Z,19.63
2022-12-08T18:56:57.348Z,19.95
2022-12-08T18:59:59.994Z,18.10
2022-12-08T19:03:02.853Z,17.25
2022-12-08T19:06:06.830Z,16.92
2022-12-08T19:09:15.829Z,18.67
2022-12-08T19:12:19.925Z,19.02
2022-12-08T19:15:22.604Z,22.45
2022-12-08T19:18:25.447Z,22.95
2022-12-08T19:21:28.737Z,22.48
2022-12-08T19:24:34.711Z,23.97
2022-12-08T19:27:38.906Z,22.50
2022-12-08T19:30:45.389Z,21.70
2022-12-08T19:33:48.824Z,19.90
2022-12-08T19:36:51.875Z,21.55
2022-12-08T19:40:13.587Z,22.30
2022-12-08T19:43:38.095Z,21.58
2022-12-08T19:46:41.087Z,21.70
2022-12-08T19:49:44.026Z,21.33
2022-12-08T19:52:46.875Z,21.00
2022-12-08T19:55:49.807Z,21.73
2022-12-08T19:58:55.282Z,23.25
2022-12-08T20:01:58.500Z,22.65
2022-12-08T20:05:01.605Z,22.50
2022-12-08T20:08:04.953Z,23.80
2022-12-08T20:11:08.249Z,31.77
2022-12-08T20:14:12.642Z,27.90
2022-12-08T20:17:15.684Z,23.90
2022-12-08T20:20:19.214Z,24.13
2022-12-08T20:23:22.056Z,27.00
2022-12-08T20:26:25.041Z,48.70
2022-12-08T20:29:29.375Z,48.35
2022-12-08T20:32:32.237Z,46.78
2022-12-08T20:35:35.176Z,39.83
2022-12-08T20:38:38.028Z,39.47
2022-12-08T20:41:40.941Z,34.67
2022-12-08T20:44:46.079Z,35.67
2022-12-08T20:47:49.184Z,31.73
2022-12-08T20:50:52.309Z,32.17
2022-12-08T20:54:13.861Z,33.30
2022-12-08T20:57:16.588Z,31.27
2022-12-08T21:00:23.220Z,32.92
2022-12-08T21:03:26.815Z,29.88
2022-12-08T21:06:30.787Z,30.00
2022-12-08T21:09:33.876Z,32.88
2022-12-08T21:12:36.651Z,23.97
2022-12-08T21:15:45.074Z,25.20
2022-12-08T21:19:06.213Z,24.77
2022-12-08T21:22:09.211Z,20.58
2022-12-08T21:25:11.985Z,20.45
2022-12-08T21:28:15.357Z,20.97
2022-12-08T21:31:21.589Z,21.83
2022-12-08T21:34:24.598Z,21.63
2022-12-08T21:37:27.106Z,23.40
2022-12-08T21:40:29.634Z,22.70
2022-12-08T21:43:33.183Z,21.60
2022-12-08T21:46:38.667Z,20.73
2022-12-08T21:50:00.253Z,20.35
2022-12-08T21:53:03.487Z,20.13
2022-12-08T21:56:08.871Z,18.00
2022-12-08T21:59:11.535Z,18.60
2022-12-08T22:02:19.606Z,18.83
2022-12-08T22:05:25.383Z,23.02
2022-12-08T22:08:28.217Z,19.45
2022-12-08T22:11:31.206Z,18.73
2022-12-08T22:14:33.911Z,19.47
2022-12-08T22:17:39.369Z,19.58
2022-12-08T22:20:44.043Z,23.05
2022-12-08T22:23:47.134Z,22.00
2022-12-08T22:26:49.888Z,20.25
2022-12-08T22:29:52.927Z,20.33
2022-12-08T22:32:57.020Z,20.85
2022-12-08T22:36:06.520Z,18.60
2022-12-08T22:39:13.259Z,18.58
2022-12-08T22:42:15.842Z,17.50
2022-12-08T22:45:18.904Z,19.90
2022-12-08T22:48:22.754Z,18.20
2022-12-08T22:51:25.609Z,16.92
2022-12-08T22:54:28.162Z,17.80
2022-12-08T22:57:30.919Z,17.27
2022-12-08T23:00:33.502Z,16.13
2022-12-08T23:03:37.615Z,17.50
2022-12-08T23:06:40.221Z,16.73
2022-12-08T23:09:43.554Z,17.63
2022-12-08T23:12:46.266Z,18.50
2022-12-08T23:15:50.117Z,18.53
2022-12-08T23:18:54.075Z,18.40
2022-12-08T23:21:56.648Z,19.95
2022-12-08T23:24:59.155Z,17.77
2022-12-08T23:28:01.679Z,19.75
2022-12-08T23:31:07.638Z,21.03
2022-12-08T23:34:12.108Z,22.40
2022-12-08T23:37:15.877Z,17.73
2022-12-08T23:40:18.411Z,18.08
2022-12-08T23:43:21.115Z,19.25
2022-12-08T23:46:24.099Z,17.77
2022-12-08T23:49:28.247Z,19.27
2022-12-08T23:52:31.215Z,18.40
2022-12-08T23:55:33.857Z,18.65
2022-12-08T23:58:37.196Z,19.05
